sensor_id;sensor_type;location;lat;lon;timestamp;P1;durP1;ratioP1;P2;durP2;ratioP2
77234;SDS011;66253;50.526;14.974;2024-03-25T00:00:57;4.90;;;1.80;;
77234;SDS011;66253;50.526;14.974;2024-03-25T00:03:28;5.10;;;2.00;;
77234;SDS011;66253;50.526;14.974;2024-03-25T00:05:58;5.60;;;1.80;;
77234;SDS011;66253;50.526;14.974;2024-03-25T00:08:27;5.70;;;2.00;;
77234;SDS011;66253;50.526;14.974;2024-03-25T00:10:56;5.90;;;1.70;;
77234;SDS011;66253;50.526;14.974;2024-03-25T00:13:25;4.80;;;1.70;;
77234;SDS011;66253;50.526;14.974;2024-03-25T00:15:53;7.50;;;1.80;;
77234;SDS011;66253;50.526;14.974;2024-03-25T00:18:22;4.20;;;1.40;;
77234;SDS011;66253;50.526;14.974;2024-03-25T00:20:50;6.70;;;1.40;;
77234;SDS011;66253;50.526;14.974;2024-03-25T00:23:20;4.00;;;1.10;;
77234;SDS011;66253;50.526;14.974;2024-03-25T00:25:49;3.50;;;0.90;;
77234;SDS011;66253;50.526;14.974;2024-03-25T00:28:18;4.10;;;1.40;;
77234;SDS011;66253;50.526;14.974;2024-03-25T00:30:46;4.70;;;1.30;;
77234;SDS011;66253;50.526;14.974;2024-03-25T00:33:15;2.50;;;0.80;;
77234;SDS011;66253;50.526;14.974;2024-03-25T00:35:43;5.20;;;1.20;;
77234;SDS011;66253;50.526;14.974;2024-03-25T00:38:12;3.60;;;2.00;;
77234;SDS011;66253;50.526;14.974;2024-03-25T00:40:40;4.60;;;1.30;;
77234;SDS011;66253;50.526;14.974;2024-03-25T00:43:09;3.00;;;1.00;;
77234;SDS011;66253;50.526;14.974;2024-03-25T00:45:37;5.90;;;1.50;;
77234;SDS011;66253;50.526;14.974;2024-03-25T00:48:06;3.50;;;1.50;;
77234;SDS011;66253;50.526;14.974;2024-03-25T00:50:35;4.10;;;1.00;;
77234;SDS011;66253;50.526;14.974;2024-03-25T00:53:04;3.80;;;1.10;;
77234;SDS011;66253;50.526;14.974;2024-03-25T00:55:32;3.90;;;0.90;;
77234;SDS011;66253;50.526;14.974;2024-03-25T00:58:01;3.00;;;0.90;;
77234;SDS011;66253;50.526;14.974;2024-03-25T01:00:30;3.00;;;0.70;;
77234;SDS011;66253;50.526;14.974;2024-03-25T01:02:59;2.80;;;0.70;;
77234;SDS011;66253;50.526;14.974;2024-03-25T01:05:28;3.30;;;1.40;;
77234;SDS011;66253;50.526;14.974;2024-03-25T01:07:57;3.50;;;0.70;;
77234;SDS011;66253;50.526;14.974;2024-03-25T01:10:25;3.20;;;0.80;;
77234;SDS011;66253;50.526;14.974;2024-03-25T01:12:54;4.00;;;1.20;;
77234;SDS011;66253;50.526;14.974;2024-03-25T01:15:23;2.90;;;1.20;;
77234;SDS011;66253;50.526;14.974;2024-03-25T01:17:53;4.00;;;0.80;;
77234;SDS011;66253;50.526;14.974;2024-03-25T01:20:21;2.30;;;0.60;;
77234;SDS011;66253;50.526;14.974;2024-03-25T01:22:52;3.10;;;1.20;;
77234;SDS011;66253;50.526;14.974;2024-03-25T01:25:21;3.10;;;0.80;;
77234;SDS011;66253;50.526;14.974;2024-03-25T01:27:49;3.60;;;0.90;;
77234;SDS011;66253;50.526;14.974;2024-03-25T01:30:19;3.30;;;0.90;;
77234;SDS011;66253;50.526;14.974;2024-03-25T01:32:48;2.60;;;0.70;;
77234;SDS011;66253;50.526;14.974;2024-03-25T01:35:17;5.30;;;1.00;;
77234;SDS011;66253;50.526;14.974;2024-03-25T01:37:45;3.30;;;0.90;;
77234;SDS011;66253;50.526;14.974;2024-03-25T01:40:15;5.10;;;1.10;;
77234;SDS011;66253;50.526;14.974;2024-03-25T01:42:44;3.00;;;0.60;;
77234;SDS011;66253;50.526;14.974;2024-03-25T01:45:23;3.30;;;0.80;;
77234;SDS011;66253;50.526;14.974;2024-03-25T01:47:52;2.70;;;0.80;;
77234;SDS011;66253;50.526;14.974;2024-03-25T01:50:21;3.00;;;0.90;;
77234;SDS011;66253;50.526;14.974;2024-03-25T01:52:51;3.80;;;1.20;;
77234;SDS011;66253;50.526;14.974;2024-03-25T01:55:21;3.50;;;1.00;;
77234;SDS011;66253;50.526;14.974;2024-03-25T01:57:51;2.70;;;0.70;;
77234;SDS011;66253;50.526;14.974;2024-03-25T02:00:20;2.70;;;1.00;;
77234;SDS011;66253;50.526;14.974;2024-03-25T02:02:54;3.20;;;0.90;;
77234;SDS011;66253;50.526;14.974;2024-03-25T02:05:23;3.40;;;1.10;;
77234;SDS011;66253;50.526;14.974;2024-03-25T02:07:51;4.20;;;1.10;;
77234;SDS011;66253;50.526;14.974;2024-03-25T02:10:20;2.60;;;0.90;;
77234;SDS011;66253;50.526;14.974;2024-03-25T02:12:49;2.70;;;0.80;;
77234;SDS011;66253;50.526;14.974;2024-03-25T02:15:19;2.90;;;0.80;;
77234;SDS011;66253;50.526;14.974;2024-03-25T02:17:49;5.00;;;1.60;;
77234;SDS011;66253;50.526;14.974;2024-03-25T02:20:17;4.40;;;1.10;;
77234;SDS011;66253;50.526;14.974;2024-03-25T02:22:46;3.40;;;1.10;;
77234;SDS011;66253;50.526;14.974;2024-03-25T02:25:17;4.40;;;1.30;;
77234;SDS011;66253;50.526;14.974;2024-03-25T02:27:48;2.90;;;0.90;;
77234;SDS011;66253;50.526;14.974;2024-03-25T02:30:17;3.70;;;1.10;;
77234;SDS011;66253;50.526;14.974;2024-03-25T02:32:45;3.80;;;1.00;;
77234;SDS011;66253;50.526;14.974;2024-03-25T02:35:15;4.00;;;1.10;;
77234;SDS011;66253;50.526;14.974;2024-03-25T02:37:45;3.50;;;1.60;;
77234;SDS011;66253;50.526;14.974;2024-03-25T02:40:13;4.70;;;0.90;;
77234;SDS011;66253;50.526;14.974;2024-03-25T02:42:42;3.40;;;1.10;;
77234;SDS011;66253;50.526;14.974;2024-03-25T02:45:13;3.00;;;0.80;;
77234;SDS011;66253;50.526;14.974;2024-03-25T02:47:43;3.80;;;1.50;;
77234;SDS011;66253;50.526;14.974;2024-03-25T02:50:12;3.20;;;0.90;;
77234;SDS011;66253;50.526;14.974;2024-03-25T02:52:40;3.20;;;0.90;;
77234;SDS011;66253;50.526;14.974;2024-03-25T02:55:11;2.90;;;0.80;;
77234;SDS011;66253;50.526;14.974;2024-03-25T02:57:40;3.00;;;0.90;;
77234;SDS011;66253;50.526;14.974;2024-03-25T03:00:09;3.00;;;1.00;;
77234;SDS011;66253;50.526;14.974;2024-03-25T03:02:39;2.80;;;1.00;;
77234;SDS011;66253;50.526;14.974;2024-03-25T03:05:09;2.70;;;0.70;;
77234;SDS011;66253;50.526;14.974;2024-03-25T03:10:06;2.60;;;0.80;;
77234;SDS011;66253;50.526;14.974;2024-03-25T03:12:35;3.30;;;0.80;;
77234;SDS011;66253;50.526;14.974;2024-03-25T03:15:04;2.80;;;0.80;;
77234;SDS011;66253;50.526;14.974;2024-03-25T03:17:35;2.80;;;1.00;;
77234;SDS011;66253;50.526;14.974;2024-03-25T03:20:04;3.40;;;1.20;;
77234;SDS011;66253;50.526;14.974;2024-03-25T03:22:35;3.60;;;1.30;;
77234;SDS011;66253;50.526;14.974;2024-03-25T03:25:04;3.00;;;1.20;;
77234;SDS011;66253;50.526;14.974;2024-03-25T03:27:33;4.10;;;1.10;;
77234;SDS011;66253;50.526;14.974;2024-03-25T03:30:02;3.60;;;1.40;;
77234;SDS011;66253;50.526;14.974;2024-03-25T03:32:32;3.40;;;1.40;;
77234;SDS011;66253;50.526;14.974;2024-03-25T03:35:00;3.90;;;1.90;;
77234;SDS011;66253;50.526;14.974;2024-03-25T03:37:31;3.30;;;1.40;;
77234;SDS011;66253;50.526;14.974;2024-03-25T03:40:00;3.40;;;1.40;;
77234;SDS011;66253;50.526;14.974;2024-03-25T03:42:31;3.30;;;1.30;;
77234;SDS011;66253;50.526;14.974;2024-03-25T03:45:02;4.10;;;1.70;;
77234;SDS011;66253;50.526;14.974;2024-03-25T03:47:32;3.80;;;0.90;;
77234;SDS011;66253;50.526;14.974;2024-03-25T03:50:00;34.80;;;19.60;;
77234;SDS011;66253;50.526;14.974;2024-03-25T03:52:31;25.60;;;14.60;;
77234;SDS011;66253;50.526;14.974;2024-03-25T03:54:59;11.20;;;6.00;;
77234;SDS011;66253;50.526;14.974;2024-03-25T03:57:29;5.00;;;2.50;;
77234;SDS011;66253;50.526;14.974;2024-03-25T03:59:59;5.30;;;2.40;;
77234;SDS011;66253;50.526;14.974;2024-03-25T04:02:31;6.40;;;3.10;;
77234;SDS011;66253;50.526;14.974;2024-03-25T04:04:59;4.40;;;2.40;;
77234;SDS011;66253;50.526;14.974;2024-03-25T04:07:31;4.90;;;3.00;;
77234;SDS011;66253;50.526;14.974;2024-03-25T04:10:00;3.30;;;1.50;;
77234;SDS011;66253;50.526;14.974;2024-03-25T04:12:30;3.20;;;1.90;;
77234;SDS011;66253;50.526;14.974;2024-03-25T04:14:59;3.90;;;1.50;;
77234;SDS011;66253;50.526;14.974;2024-03-25T04:17:32;4.10;;;1.30;;
77234;SDS011;66253;50.526;14.974;2024-03-25T04:20:01;3.10;;;1.80;;
77234;SDS011;66253;50.526;14.974;2024-03-25T04:22:31;2.60;;;1.00;;
77234;SDS011;66253;50.526;14.974;2024-03-25T04:25:01;2.20;;;0.70;;
77234;SDS011;66253;50.526;14.974;2024-03-25T04:27:32;2.30;;;0.70;;
77234;SDS011;66253;50.526;14.974;2024-03-25T04:30:00;1.70;;;0.50;;
77234;SDS011;66253;50.526;14.974;2024-03-25T04:32:30;3.70;;;0.60;;
77234;SDS011;66253;50.526;14.974;2024-03-25T04:34:59;1.90;;;0.60;;
77234;SDS011;66253;50.526;14.974;2024-03-25T04:37:31;2.00;;;0.40;;
77234;SDS011;66253;50.526;14.974;2024-03-25T04:40:02;2.20;;;0.40;;
77234;SDS011;66253;50.526;14.974;2024-03-25T04:42:32;2.00;;;0.50;;
77234;SDS011;66253;50.526;14.974;2024-03-25T04:45:03;2.00;;;0.80;;
77234;SDS011;66253;50.526;14.974;2024-03-25T04:47:34;3.10;;;1.10;;
77234;SDS011;66253;50.526;14.974;2024-03-25T04:50:03;1.70;;;0.40;;
77234;SDS011;66253;50.526;14.974;2024-03-25T04:52:33;1.50;;;0.40;;
77234;SDS011;66253;50.526;14.974;2024-03-25T04:55:04;1.70;;;0.30;;
77234;SDS011;66253;50.526;14.974;2024-03-25T04:57:33;1.60;;;0.30;;
77234;SDS011;66253;50.526;14.974;2024-03-25T05:00:06;1.90;;;0.60;;
77234;SDS011;66253;50.526;14.974;2024-03-25T05:02:37;1.60;;;0.40;;
77234;SDS011;66253;50.526;14.974;2024-03-25T05:05:06;1.60;;;0.40;;
77234;SDS011;66253;50.526;14.974;2024-03-25T05:07:40;1.70;;;0.30;;
77234;SDS011;66253;50.526;14.974;2024-03-25T05:10:09;1.40;;;0.30;;
77234;SDS011;66253;50.526;14.974;2024-03-25T05:12:40;2.60;;;0.40;;
77234;SDS011;66253;50.526;14.974;2024-03-25T05:15:09;3.00;;;0.30;;
77234;SDS011;66253;50.526;14.974;2024-03-25T05:17:38;1.60;;;0.40;;
77234;SDS011;66253;50.526;14.974;2024-03-25T05:20:08;1.90;;;0.40;;
77234;SDS011;66253;50.526;14.974;2024-03-25T05:22:38;2.30;;;0.50;;
77234;SDS011;66253;50.526;14.974;2024-03-25T05:25:06;1.90;;;0.40;;
77234;SDS011;66253;50.526;14.974;2024-03-25T05:27:35;2.40;;;0.40;;
77234;SDS011;66253;50.526;14.974;2024-03-25T05:30:04;3.50;;;0.40;;
77234;SDS011;66253;50.526;14.974;2024-03-25T05:32:34;1.10;;;0.30;;
77234;SDS011;66253;50.526;14.974;2024-03-25T05:35:02;1.90;;;0.60;;
77234;SDS011;66253;50.526;14.974;2024-03-25T05:37:31;1.60;;;0.60;;
77234;SDS011;66253;50.526;14.974;2024-03-25T05:40:00;1.10;;;0.40;;
77234;SDS011;66253;50.526;14.974;2024-03-25T05:42:34;1.50;;;0.40;;
77234;SDS011;66253;50.526;14.974;2024-03-25T05:45:06;1.80;;;0.50;;
77234;SDS011;66253;50.526;14.974;2024-03-25T05:47:35;2.10;;;0.50;;
77234;SDS011;66253;50.526;14.974;2024-03-25T05:50:04;1.80;;;0.50;;
77234;SDS011;66253;50.526;14.974;2024-03-25T05:52:34;3.90;;;1.80;;
77234;SDS011;66253;50.526;14.974;2024-03-25T05:55:03;3.80;;;1.70;;
77234;SDS011;66253;50.526;14.974;2024-03-25T05:57:32;2.70;;;1.10;;
77234;SDS011;66253;50.526;14.974;2024-03-25T06:00:00;3.20;;;1.50;;
77234;SDS011;66253;50.526;14.974;2024-03-25T06:02:32;2.40;;;0.80;;
77234;SDS011;66253;50.526;14.974;2024-03-25T06:05:00;2.80;;;0.90;;
77234;SDS011;66253;50.526;14.974;2024-03-25T06:07:32;2.50;;;0.90;;
77234;SDS011;66253;50.526;14.974;2024-03-25T06:10:01;2.80;;;0.70;;
77234;SDS011;66253;50.526;14.974;2024-03-25T06:12:31;2.20;;;0.70;;
77234;SDS011;66253;50.526;14.974;2024-03-25T06:15:00;1.80;;;0.40;;
77234;SDS011;66253;50.526;14.974;2024-03-25T06:17:30;2.50;;;0.60;;
77234;SDS011;66253;50.526;14.974;2024-03-25T06:19:58;2.50;;;1.20;;
77234;SDS011;66253;50.526;14.974;2024-03-25T06:22:30;3.20;;;1.40;;
77234;SDS011;66253;50.526;14.974;2024-03-25T06:25:01;4.00;;;1.30;;
77234;SDS011;66253;50.526;14.974;2024-03-25T06:27:31;8.10;;;3.00;;
77234;SDS011;66253;50.526;14.974;2024-03-25T06:30:00;7.70;;;2.60;;
77234;SDS011;66253;50.526;14.974;2024-03-25T06:32:30;9.00;;;3.00;;
77234;SDS011;66253;50.526;14.974;2024-03-25T06:34:59;10.90;;;4.30;;
77234;SDS011;66253;50.526;14.974;2024-03-25T06:37:29;11.30;;;4.50;;
77234;SDS011;66253;50.526;14.974;2024-03-25T06:39:58;10.20;;;4.00;;
77234;SDS011;66253;50.526;14.974;2024-03-25T06:42:27;10.30;;;3.80;;
77234;SDS011;66253;50.526;14.974;2024-03-25T06:44:58;7.50;;;3.00;;
77234;SDS011;66253;50.526;14.974;2024-03-25T06:47:29;4.20;;;1.60;;
77234;SDS011;66253;50.526;14.974;2024-03-25T06:49:58;5.00;;;1.90;;
77234;SDS011;66253;50.526;14.974;2024-03-25T06:52:28;5.20;;;1.70;;
77234;SDS011;66253;50.526;14.974;2024-03-25T06:54:57;5.60;;;2.60;;
77234;SDS011;66253;50.526;14.974;2024-03-25T06:57:25;4.60;;;1.10;;
77234;SDS011;66253;50.526;14.974;2024-03-25T06:59:54;3.30;;;1.10;;
77234;SDS011;66253;50.526;14.974;2024-03-25T07:02:22;4.30;;;2.20;;
77234;SDS011;66253;50.526;14.974;2024-03-25T07:04:51;4.80;;;1.60;;
77234;SDS011;66253;50.526;14.974;2024-03-25T07:07:19;6.00;;;1.80;;
77234;SDS011;66253;50.526;14.974;2024-03-25T07:09:48;3.80;;;1.20;;
77234;SDS011;66253;50.526;14.974;2024-03-25T07:12:16;3.00;;;0.80;;
77234;SDS011;66253;50.526;14.974;2024-03-25T07:14:46;3.10;;;1.10;;
77234;SDS011;66253;50.526;14.974;2024-03-25T07:17:15;3.30;;;0.90;;
77234;SDS011;66253;50.526;14.974;2024-03-25T07:19:44;2.80;;;1.00;;
77234;SDS011;66253;50.526;14.974;2024-03-25T07:22:12;3.20;;;1.00;;
77234;SDS011;66253;50.526;14.974;2024-03-25T07:24:42;3.20;;;0.90;;
77234;SDS011;66253;50.526;14.974;2024-03-25T07:27:10;4.00;;;1.20;;
77234;SDS011;66253;50.526;14.974;2024-03-25T07:29:39;4.50;;;1.40;;
77234;SDS011;66253;50.526;14.974;2024-03-25T07:32:08;4.20;;;1.50;;
77234;SDS011;66253;50.526;14.974;2024-03-25T07:34:37;4.40;;;0.80;;
77234;SDS011;66253;50.526;14.974;2024-03-25T07:37:08;2.70;;;0.70;;
77234;SDS011;66253;50.526;14.974;2024-03-25T07:39:36;2.70;;;1.60;;
77234;SDS011;66253;50.526;14.974;2024-03-25T07:42:05;2.90;;;0.80;;
77234;SDS011;66253;50.526;14.974;2024-03-25T07:44:34;3.90;;;1.60;;
77234;SDS011;66253;50.526;14.974;2024-03-25T07:47:02;5.10;;;2.20;;
77234;SDS011;66253;50.526;14.974;2024-03-25T07:49:31;3.90;;;1.40;;
77234;SDS011;66253;50.526;14.974;2024-03-25T07:52:00;14.70;;;7.60;;
77234;SDS011;66253;50.526;14.974;2024-03-25T07:54:29;7.00;;;2.40;;
77234;SDS011;66253;50.526;14.974;2024-03-25T07:56:57;4.20;;;1.20;;
77234;SDS011;66253;50.526;14.974;2024-03-25T07:59:29;4.30;;;1.20;;
77234;SDS011;66253;50.526;14.974;2024-03-25T08:01:58;2.40;;;0.60;;
77234;SDS011;66253;50.526;14.974;2024-03-25T08:04:29;3.40;;;0.90;;
77234;SDS011;66253;50.526;14.974;2024-03-25T08:06:58;4.90;;;1.40;;
77234;SDS011;66253;50.526;14.974;2024-03-25T08:09:28;3.50;;;1.80;;
77234;SDS011;66253;50.526;14.974;2024-03-25T08:11:56;2.70;;;0.60;;
77234;SDS011;66253;50.526;14.974;2024-03-25T08:14:25;2.70;;;1.30;;
77234;SDS011;66253;50.526;14.974;2024-03-25T08:16:56;3.10;;;1.10;;
77234;SDS011;66253;50.526;14.974;2024-03-25T08:19:25;2.80;;;0.80;;
77234;SDS011;66253;50.526;14.974;2024-03-25T08:21:57;2.50;;;0.80;;
77234;SDS011;66253;50.526;14.974;2024-03-25T08:24:25;2.70;;;0.70;;
77234;SDS011;66253;50.526;14.974;2024-03-25T08:26:56;3.70;;;1.50;;
77234;SDS011;66253;50.526;14.974;2024-03-25T08:29:28;18.40;;;7.90;;
77234;SDS011;66253;50.526;14.974;2024-03-25T08:31:56;21.70;;;9.90;;
77234;SDS011;66253;50.526;14.974;2024-03-25T08:34:25;32.90;;;20.20;;
77234;SDS011;66253;50.526;14.974;2024-03-25T08:36:55;35.10;;;16.30;;
77234;SDS011;66253;50.526;14.974;2024-03-25T08:39:26;85.90;;;42.70;;
77234;SDS011;66253;50.526;14.974;2024-03-25T08:41:54;30.10;;;15.60;;
77234;SDS011;66253;50.526;14.974;2024-03-25T08:44:24;13.50;;;7.50;;
77234;SDS011;66253;50.526;14.974;2024-03-25T08:46:53;11.00;;;5.70;;
77234;SDS011;66253;50.526;14.974;2024-03-25T08:49:22;7.60;;;2.80;;
77234;SDS011;66253;50.526;14.974;2024-03-25T08:51:51;5.40;;;3.20;;
77234;SDS011;66253;50.526;14.974;2024-03-25T08:54:23;5.40;;;2.60;;
77234;SDS011;66253;50.526;14.974;2024-03-25T08:56:53;10.80;;;3.90;;
77234;SDS011;66253;50.526;14.974;2024-03-25T08:59:21;11.40;;;5.20;;
77234;SDS011;66253;50.526;14.974;2024-03-25T09:01:50;6.60;;;2.60;;
77234;SDS011;66253;50.526;14.974;2024-03-25T09:04:21;4.60;;;1.80;;
77234;SDS011;66253;50.526;14.974;2024-03-25T09:06:51;8.40;;;3.60;;
77234;SDS011;66253;50.526;14.974;2024-03-25T09:09:20;19.50;;;8.40;;
77234;SDS011;66253;50.526;14.974;2024-03-25T09:11:48;12.80;;;5.20;;
77234;SDS011;66253;50.526;14.974;2024-03-25T09:14:18;7.40;;;2.90;;
77234;SDS011;66253;50.526;14.974;2024-03-25T09:16:48;3.80;;;1.30;;
77234;SDS011;66253;50.526;14.974;2024-03-25T09:19:17;3.80;;;1.20;;
77234;SDS011;66253;50.526;14.974;2024-03-25T09:21:49;2.90;;;0.90;;
77234;SDS011;66253;50.526;14.974;2024-03-25T09:24:17;4.60;;;1.40;;
77234;SDS011;66253;50.526;14.974;2024-03-25T09:26:46;4.10;;;0.80;;
77234;SDS011;66253;50.526;14.974;2024-03-25T09:29:21;3.20;;;0.70;;
77234;SDS011;66253;50.526;14.974;2024-03-25T09:31:50;3.40;;;1.00;;
77234;SDS011;66253;50.526;14.974;2024-03-25T09:34:18;4.90;;;2.30;;
77234;SDS011;66253;50.526;14.974;2024-03-25T09:36:51;4.10;;;1.20;;
77234;SDS011;66253;50.526;14.974;2024-03-25T09:39:20;5.90;;;2.40;;
77234;SDS011;66253;50.526;14.974;2024-03-25T09:41:51;4.60;;;1.60;;
77234;SDS011;66253;50.526;14.974;2024-03-25T09:44:24;6.00;;;1.90;;
77234;SDS011;66253;50.526;14.974;2024-03-25T09:46:57;5.90;;;3.00;;
77234;SDS011;66253;50.526;14.974;2024-03-25T09:49:29;4.90;;;1.40;;
77234;SDS011;66253;50.526;14.974;2024-03-25T09:51:58;5.20;;;2.00;;
77234;SDS011;66253;50.526;14.974;2024-03-25T09:54:27;4.40;;;1.70;;
77234;SDS011;66253;50.526;14.974;2024-03-25T09:56:58;3.40;;;1.60;;
77234;SDS011;66253;50.526;14.974;2024-03-25T09:59:29;2.80;;;1.10;;
77234;SDS011;66253;50.526;14.974;2024-03-25T10:01:59;3.90;;;1.30;;
77234;SDS011;66253;50.526;14.974;2024-03-25T10:04:29;4.20;;;1.30;;
77234;SDS011;66253;50.526;14.974;2024-03-25T10:06:58;2.70;;;1.10;;
77234;SDS011;66253;50.526;14.974;2024-03-25T10:09:27;3.20;;;1.20;;
77234;SDS011;66253;50.526;14.974;2024-03-25T10:11:56;3.90;;;1.20;;
77234;SDS011;66253;50.526;14.974;2024-03-25T10:14:25;3.40;;;1.30;;
77234;SDS011;66253;50.526;14.974;2024-03-25T10:16:54;3.10;;;1.10;;
77234;SDS011;66253;50.526;14.974;2024-03-25T10:19:23;3.40;;;0.80;;
77234;SDS011;66253;50.526;14.974;2024-03-25T10:22:02;4.00;;;1.00;;
77234;SDS011;66253;50.526;14.974;2024-03-25T10:24:41;11.00;;;3.90;;
77234;SDS011;66253;50.526;14.974;2024-03-25T10:27:20;31.40;;;11.60;;
77234;SDS011;66253;50.526;14.974;2024-03-25T10:29:51;7.30;;;2.80;;
77234;SDS011;66253;50.526;14.974;2024-03-25T10:32:21;4.80;;;1.60;;
77234;SDS011;66253;50.526;14.974;2024-03-25T10:34:50;4.40;;;1.40;;
77234;SDS011;66253;50.526;14.974;2024-03-25T10:37:19;3.60;;;1.30;;
77234;SDS011;66253;50.526;14.974;2024-03-25T10:39:51;9.40;;;4.50;;
77234;SDS011;66253;50.526;14.974;2024-03-25T10:42:29;5.90;;;2.10;;
77234;SDS011;66253;50.526;14.974;2024-03-25T10:45:01;3.80;;;1.00;;
77234;SDS011;66253;50.526;14.974;2024-03-25T10:47:31;3.60;;;1.60;;
77234;SDS011;66253;50.526;14.974;2024-03-25T10:50:01;3.40;;;0.90;;
77234;SDS011;66253;50.526;14.974;2024-03-25T10:52:36;3.00;;;1.00;;
77234;SDS011;66253;50.526;14.974;2024-03-25T10:55:08;4.00;;;1.30;;
77234;SDS011;66253;50.526;14.974;2024-03-25T10:57:36;3.30;;;0.90;;
77234;SDS011;66253;50.526;14.974;2024-03-25T11:00:09;3.30;;;1.10;;
77234;SDS011;66253;50.526;14.974;2024-03-25T11:02:42;7.50;;;2.90;;
77234;SDS011;66253;50.526;14.974;2024-03-25T11:05:11;3.90;;;1.90;;
77234;SDS011;66253;50.526;14.974;2024-03-25T11:07:41;3.40;;;1.30;;
77234;SDS011;66253;50.526;14.974;2024-03-25T11:10:16;4.80;;;1.80;;
77234;SDS011;66253;50.526;14.974;2024-03-25T11:12:44;7.20;;;3.70;;
77234;SDS011;66253;50.526;14.974;2024-03-25T11:15:15;4.20;;;1.50;;
77234;SDS011;66253;50.526;14.974;2024-03-25T11:17:49;4.20;;;1.10;;
77234;SDS011;66253;50.526;14.974;2024-03-25T11:20:18;3.90;;;2.10;;
77234;SDS011;66253;50.526;14.974;2024-03-25T11:22:49;3.80;;;1.60;;
77234;SDS011;66253;50.526;14.974;2024-03-25T11:25:20;6.20;;;2.50;;
77234;SDS011;66253;50.526;14.974;2024-03-25T11:27:49;12.30;;;5.10;;
77234;SDS011;66253;50.526;14.974;2024-03-25T11:30:17;3.90;;;1.40;;
77234;SDS011;66253;50.526;14.974;2024-03-25T11:32:46;3.70;;;1.10;;
77234;SDS011;66253;50.526;14.974;2024-03-25T11:35:21;4.80;;;1.90;;
77234;SDS011;66253;50.526;14.974;2024-03-25T11:37:51;5.10;;;3.10;;
77234;SDS011;66253;50.526;14.974;2024-03-25T11:40:21;3.70;;;1.40;;
77234;SDS011;66253;50.526;14.974;2024-03-25T11:42:49;5.90;;;1.30;;
77234;SDS011;66253;50.526;14.974;2024-03-25T11:45:19;3.60;;;1.30;;
77234;SDS011;66253;50.526;14.974;2024-03-25T11:47:48;8.20;;;4.40;;
77234;SDS011;66253;50.526;14.974;2024-03-25T11:50:17;6.80;;;2.70;;
77234;SDS011;66253;50.526;14.974;2024-03-25T11:52:46;4.70;;;1.50;;
77234;SDS011;66253;50.526;14.974;2024-03-25T11:55:17;3.70;;;1.30;;
77234;SDS011;66253;50.526;14.974;2024-03-25T11:57:46;3.70;;;1.10;;
77234;SDS011;66253;50.526;14.974;2024-03-25T12:00:21;2.50;;;0.70;;
77234;SDS011;66253;50.526;14.974;2024-03-25T12:02:51;2.80;;;0.70;;
77234;SDS011;66253;50.526;14.974;2024-03-25T12:05:20;2.90;;;1.20;;
77234;SDS011;66253;50.526;14.974;2024-03-25T12:07:49;3.50;;;1.40;;
77234;SDS011;66253;50.526;14.974;2024-03-25T12:10:19;3.80;;;1.30;;
77234;SDS011;66253;50.526;14.974;2024-03-25T12:12:52;3.80;;;1.70;;
77234;SDS011;66253;50.526;14.974;2024-03-25T12:15:21;4.20;;;1.60;;
77234;SDS011;66253;50.526;14.974;2024-03-25T12:17:50;4.70;;;2.30;;
77234;SDS011;66253;50.526;14.974;2024-03-25T12:20:19;4.30;;;1.50;;
77234;SDS011;66253;50.526;14.974;2024-03-25T12:22:48;26.00;;;13.90;;
77234;SDS011;66253;50.526;14.974;2024-03-25T12:25:18;11.00;;;6.80;;
77234;SDS011;66253;50.526;14.974;2024-03-25T12:27:48;6.40;;;3.10;;
77234;SDS011;66253;50.526;14.974;2024-03-25T12:30:19;3.20;;;1.30;;
77234;SDS011;66253;50.526;14.974;2024-03-25T12:32:48;2.90;;;1.10;;
77234;SDS011;66253;50.526;14.974;2024-03-25T12:35:18;2.90;;;1.40;;
77234;SDS011;66253;50.526;14.974;2024-03-25T12:37:49;3.20;;;0.80;;
77234;SDS011;66253;50.526;14.974;2024-03-25T12:40:26;2.40;;;0.50;;
77234;SDS011;66253;50.526;14.974;2024-03-25T12:42:55;2.00;;;0.60;;
77234;SDS011;66253;50.526;14.974;2024-03-25T12:45:28;2.60;;;0.70;;
77234;SDS011;66253;50.526;14.974;2024-03-25T12:47:56;2.50;;;0.60;;
77234;SDS011;66253;50.526;14.974;2024-03-25T12:50:25;3.20;;;1.10;;
77234;SDS011;66253;50.526;14.974;2024-03-25T12:52:57;7.10;;;2.40;;
77234;SDS011;66253;50.526;14.974;2024-03-25T12:55:26;18.20;;;5.40;;
77234;SDS011;66253;50.526;14.974;2024-03-25T12:57:54;17.60;;;5.00;;
77234;SDS011;66253;50.526;14.974;2024-03-25T13:00:23;39.00;;;11.50;;
77234;SDS011;66253;50.526;14.974;2024-03-25T13:02:51;46.10;;;16.50;;
77234;SDS011;66253;50.526;14.974;2024-03-25T13:05:20;21.50;;;7.40;;
77234;SDS011;66253;50.526;14.974;2024-03-25T13:07:49;80.10;;;23.20;;
77234;SDS011;66253;50.526;14.974;2024-03-25T13:12:46;31.80;;;11.60;;
77234;SDS011;66253;50.526;14.974;2024-03-25T13:15:15;11.50;;;4.20;;
77234;SDS011;66253;50.526;14.974;2024-03-25T13:17:43;29.70;;;15.50;;
77234;SDS011;66253;50.526;14.974;2024-03-25T13:20:12;10.00;;;5.30;;
77234;SDS011;66253;50.526;14.974;2024-03-25T13:22:41;13.20;;;5.50;;
77234;SDS011;66253;50.526;14.974;2024-03-25T13:25:10;19.80;;;7.20;;
77234;SDS011;66253;50.526;14.974;2024-03-25T13:27:39;17.30;;;5.40;;
77234;SDS011;66253;50.526;14.974;2024-03-25T13:30:09;20.20;;;6.60;;
77234;SDS011;66253;50.526;14.974;2024-03-25T13:32:38;22.10;;;8.20;;
77234;SDS011;66253;50.526;14.974;2024-03-25T13:35:06;10.10;;;3.70;;
77234;SDS011;66253;50.526;14.974;2024-03-25T13:37:35;26.50;;;9.20;;
77234;SDS011;66253;50.526;14.974;2024-03-25T13:40:04;18.70;;;6.20;;
77234;SDS011;66253;50.526;14.974;2024-03-25T13:42:34;19.50;;;7.90;;
77234;SDS011;66253;50.526;14.974;2024-03-25T13:45:03;10.50;;;4.70;;
77234;SDS011;66253;50.526;14.974;2024-03-25T13:47:32;7.50;;;3.00;;
77234;SDS011;66253;50.526;14.974;2024-03-25T13:50:01;9.40;;;3.90;;
77234;SDS011;66253;50.526;14.974;2024-03-25T13:52:31;5.80;;;2.70;;
77234;SDS011;66253;50.526;14.974;2024-03-25T13:55:00;6.70;;;3.20;;
77234;SDS011;66253;50.526;14.974;2024-03-25T13:57:31;9.30;;;4.10;;
77234;SDS011;66253;50.526;14.974;2024-03-25T14:00:00;7.80;;;3.40;;
77234;SDS011;66253;50.526;14.974;2024-03-25T14:02:32;4.80;;;2.40;;
77234;SDS011;66253;50.526;14.974;2024-03-25T14:05:00;4.60;;;2.20;;
77234;SDS011;66253;50.526;14.974;2024-03-25T14:07:29;6.80;;;3.60;;
77234;SDS011;66253;50.526;14.974;2024-03-25T14:09:57;5.80;;;2.70;;
77234;SDS011;66253;50.526;14.974;2024-03-25T14:12:26;4.20;;;1.40;;
77234;SDS011;66253;50.526;14.974;2024-03-25T14:14:54;3.90;;;1.70;;
77234;SDS011;66253;50.526;14.974;2024-03-25T14:17:23;24.30;;;10.00;;
77234;SDS011;66253;50.526;14.974;2024-03-25T14:19:53;10.60;;;4.50;;
77234;SDS011;66253;50.526;14.974;2024-03-25T14:22:25;8.00;;;2.60;;
77234;SDS011;66253;50.526;14.974;2024-03-25T14:24:54;27.60;;;11.20;;
77234;SDS011;66253;50.526;14.974;2024-03-25T14:27:25;38.20;;;13.70;;
77234;SDS011;66253;50.526;14.974;2024-03-25T14:29:54;16.60;;;6.80;;
77234;SDS011;66253;50.526;14.974;2024-03-25T14:32:24;5.20;;;2.20;;
77234;SDS011;66253;50.526;14.974;2024-03-25T14:34:58;4.70;;;1.40;;
77234;SDS011;66253;50.526;14.974;2024-03-25T14:37:26;5.00;;;1.60;;
77234;SDS011;66253;50.526;14.974;2024-03-25T14:39:57;4.20;;;1.80;;
77234;SDS011;66253;50.526;14.974;2024-03-25T14:42:26;6.50;;;2.90;;
77234;SDS011;66253;50.526;14.974;2024-03-25T14:44:55;7.30;;;3.40;;
77234;SDS011;66253;50.526;14.974;2024-03-25T14:47:26;15.70;;;6.20;;
77234;SDS011;66253;50.526;14.974;2024-03-25T14:49:57;11.30;;;5.00;;